Time;durP1;ratioP1;P1;durP2;ratioP2;P2;SDS_P1;SDS_P2;PMS_P1;PMS_P2;Temp;Humidity;BMP_temperature;BMP_pressure;BME280_temperature;BME280_humidity;BME280_pressure;Samples;Min_cycle;Max_cycle;Signal;HPM_P1;HPM_P2
2021/12/17 00:01:00;;;;;;;45.80;24.30;;;5.90;84.00;;;;;;4936535;29;20067;-80
2021/12/17 00:03:43;;;;;;;47.53;23.63;;;5.90;84.00;;;;;;4936601;29;20048;-81
2021/12/17 00:06:17;;;;;;;51.85;26.40;;;5.90;84.00;;;;;;4921365;29;20047;-81
2021/12/17 00:08:50;;;;;;;56.05;25.08;;;5.90;84.00;;;;;;4935438;29;20055;-81
2021/12/17 00:11:19;;;;;;;50.60;25.45;;;6.00;84.10;;;;;;4937726;28;20524;-81
2021/12/17 00:13:47;;;;;;;47.13;24.63;;;5.90;84.10;;;;;;4935950;29;20062;-80
2021/12/17 00:16:20;;;;;;;44.55;25.40;;;6.00;84.10;;;;;;4936210;29;20050;-81
2021/12/17 00:19:02;;;;;;;47.53;26.20;;;6.00;84.10;;;;;;4936100;29;20070;-81
2021/12/17 00:46:32;;;;;;;55.92;26.50;;;6.10;84.30;;;;;;4935832;29;20039;-81
2021/12/17 00:49:05;;;;;;;47.55;26.40;;;6.20;84.40;;;;;;4935881;29;20126;-81
2021/12/17 00:54:08;;;;;;;42.95;25.17;;;6.20;84.40;;;;;;4935685;29;22875;-81
2021/12/17 00:56:35;;;;;;;44.90;26.35;;;6.20;84.40;;;;;;4934701;29;20071;-81
2021/12/17 00:59:03;;;;;;;46.03;27.25;;;6.20;84.40;;;;;;4935853;29;20054;-81
2021/12/17 01:01:31;;;;;;;46.80;26.27;;;6.30;84.50;;;;;;4935796;29;20044;-81
2021/12/17 01:03:58;;;;;;;43.85;26.83;;;6.30;84.50;;;;;;4935714;29;20048;-81
2021/12/17 01:06:25;;;;;;;44.42;27.50;;;6.30;84.40;;;;;;4938974;29;20521;-81
2021/12/17 01:08:54;;;;;;;43.25;25.88;;;6.30;84.50;;;;;;4939599;29;20510;-81
2021/12/17 01:11:22;;;;;;;43.92;27.85;;;6.30;84.50;;;;;;4936914;29;20106;-81
2021/12/17 01:13:50;;;;;;;41.58;27.27;;;6.30;84.50;;;;;;4939590;29;20502;-81
2021/12/17 01:16:17;;;;;;;43.03;27.42;;;6.30;84.50;;;;;;4939531;29;20044;-81
2021/12/17 01:19:16;;;;;;;45.42;27.58;;;6.40;84.50;;;;;;4939261;29;20052;-81
2021/12/17 01:24:17;;;;;;;44.53;29.25;;;6.40;84.50;;;;;;4939304;29;20074;-81
2021/12/17 01:35:21;;;;;;;40.38;28.52;;;6.40;84.50;;;;;;4939238;29;20047;-81
2021/12/17 01:43:12;;;;;;;43.72;30.30;;;6.40;84.60;;;;;;4938916;29;20043;-81
2021/12/17 01:45:41;;;;;;;42.55;29.48;;;6.50;84.60;;;;;;4939015;29;20052;-81
2021/12/17 01:48:13;;;;;;;44.45;29.88;;;6.50;84.60;;;;;;4923953;29;20054;-81
2021/12/17 02:01:34;;;;;;;42.08;30.00;;;6.50;84.70;;;;;;4938615;29;20047;-81
2021/12/17 02:04:04;;;;;;;41.03;30.13;;;6.50;84.70;;;;;;4938408;29;20052;-81
2021/12/17 02:06:35;;;;;;;38.53;28.80;;;6.50;84.70;;;;;;4938566;29;20062;-81
2021/12/17 02:09:28;;;;;;;38.72;28.60;;;6.50;84.70;;;;;;4938024;29;20048;-81
2021/12/17 02:29:01;;;;;;;36.28;28.73;;;6.60;84.80;;;;;;4938088;29;20056;-81
2021/12/17 02:31:33;;;;;;;36.42;28.15;;;6.60;84.70;;;;;;4938241;29;20048;-81
2021/12/17 02:34:26;;;;;;;37.45;27.92;;;6.60;84.80;;;;;;4937987;29;20055;-81
2021/12/17 02:36:55;;;;;;;36.00;27.08;;;6.60;84.80;;;;;;4937552;29;20051;-80
2021/12/17 02:47:41;;;;;;;34.90;27.80;;;6.60;84.80;;;;;;4931709;29;20056;-81
2021/12/17 02:50:11;;;;;;;37.47;28.70;;;6.60;84.80;;;;;;4935519;29;20418;-82
2021/12/17 02:52:40;;;;;;;37.45;27.13;;;6.60;84.90;;;;;;4935335;29;20534;-82
2021/12/17 02:55:08;;;;;;;33.55;26.42;;;6.60;84.90;;;;;;4935440;29;20058;-82
2021/12/17 02:57:36;;;;;;;35.33;26.10;;;6.60;84.80;;;;;;4935784;29;20060;-81
2021/12/17 03:00:08;;;;;;;33.83;26.70;;;6.60;84.90;;;;;;4935534;29;20067;-82
2021/12/17 03:02:38;;;;;;;34.22;26.98;;;6.60;84.90;;;;;;4930659;29;20522;-81
2021/12/17 03:05:07;;;;;;;31.75;26.90;;;6.60;84.90;;;;;;4937024;29;20082;-82
2021/12/17 03:07:38;;;;;;;33.60;25.98;;;6.60;84.90;;;;;;4934755;29;20076;-82
2021/12/17 03:10:09;;;;;;;32.70;26.65;;;6.60;84.90;;;;;;4935312;29;20246;-81
2021/12/17 03:12:45;;;;;;;33.08;25.85;;;6.60;84.90;;;;;;4935318;29;20145;-81
2021/12/17 03:23:39;;;;;;;33.10;25.50;;;6.60;84.90;;;;;;4935891;29;20524;-81
2021/12/17 03:26:08;;;;;;;32.90;26.67;;;6.60;84.90;;;;;;4936783;29;20047;-82
2021/12/17 03:28:36;;;;;;;33.50;26.23;;;6.60;84.90;;;;;;4936103;29;20048;-81
2021/12/17 03:31:04;;;;;;;30.00;25.80;;;6.60;84.90;;;;;;4936972;29;20040;-81
2021/12/17 03:33:31;;;;;;;39.63;26.80;;;6.60;84.90;;;;;;4937034;29;20050;-81
2021/12/17 03:35:58;;;;;;;31.17;25.60;;;6.60;84.90;;;;;;4936605;29;20062;-81
2021/12/17 03:38:27;;;;;;;30.90;24.92;;;6.60;84.90;;;;;;4936212;29;20581;-81
2021/12/17 03:41:10;;;;;;;31.23;26.13;;;6.60;84.90;;;;;;4936887;29;20048;-81
2021/12/17 03:43:37;;;;;;;31.80;24.63;;;6.60;84.90;;;;;;4936785;29;20060;-81
2021/12/17 03:46:05;;;;;;;32.40;26.20;;;6.60;84.90;;;;;;4936756;29;20502;-81
2021/12/17 03:48:35;;;;;;;29.85;25.08;;;6.60;84.90;;;;;;4936903;29;20051;-81
2021/12/17 03:51:04;;;;;;;29.02;23.80;;;6.50;84.90;;;;;;4935210;29;20039;-81
2021/12/17 03:53:31;;;;;;;31.30;25.48;;;6.50;84.90;;;;;;4935780;29;20055;-81
2021/12/17 03:55:58;;;;;;;27.15;23.35;;;6.50;84.90;;;;;;4936471;29;20058;-81
2021/12/17 03:58:25;;;;;;;31.38;26.10;;;6.50;84.90;;;;;;4936515;29;20043;-81
2021/12/17 04:00:53;;;;;;;28.45;24.05;;;6.50;84.90;;;;;;4936489;29;20052;-81
2021/12/17 04:03:20;;;;;;;28.27;24.63;;;6.50;84.90;;;;;;4936619;29;20090;-81
2021/12/17 04:05:47;;;;;;;28.50;24.73;;;6.50;84.90;;;;;;4935563;29;20418;-81
2021/12/17 04:08:14;;;;;;;28.60;24.30;;;6.50;84.90;;;;;;4935834;28;20063;-81
2021/12/17 04:10:45;;;;;;;28.00;23.98;;;6.40;84.90;;;;;;4936289;29;20051;-81
2021/12/17 04:13:36;;;;;;;28.67;24.45;;;6.50;84.90;;;;;;4936299;29;20044;-81
2021/12/17 04:16:07;;;;;;;27.55;22.77;;;6.50;84.90;;;;;;4936103;29;20054;-81
2021/12/17 04:18:40;;;;;;;26.58;23.10;;;6.40;84.90;;;;;;4935903;29;20498;-81
2021/12/17 04:21:15;;;;;;;27.77;23.50;;;6.50;84.90;;;;;;4921158;29;20047;-81
2021/12/17 04:23:43;;;;;;;28.10;25.00;;;6.40;84.90;;;;;;4932282;29;20698;-82
2021/12/17 04:26:11;;;;;;;31.70;25.58;;;6.40;84.90;;;;;;4930917;29;20070;-81
2021/12/17 04:28:44;;;;;;;28.10;24.63;;;6.40;84.80;;;;;;4936124;29;20048;-81
2021/12/17 04:31:13;;;;;;;28.05;24.02;;;6.40;84.80;;;;;;4935935;29;20050;-81
2021/12/17 04:33:42;;;;;;;27.52;24.10;;;6.40;84.80;;;;;;4935752;29;20055;-81
2021/12/17 04:36:13;;;;;;;29.13;24.75;;;6.40;84.90;;;;;;4921184;29;20045;-81
2021/12/17 04:38:41;;;;;;;27.77;23.50;;;6.40;84.80;;;;;;4931512;29;20047;-81
2021/12/17 04:44:03;;;;;;;27.92;24.20;;;6.40;84.80;;;;;;4935747;29;20087;-81
2021/12/17 04:46:40;;;;;;;28.60;23.83;;;6.40;84.80;;;;;;4935812;29;20053;-81
2021/12/17 04:57:36;;;;;;;28.48;24.13;;;6.30;84.80;;;;;;4922969;29;20061;-81
2021/12/17 05:00:09;;;;;;;27.77;24.02;;;6.30;84.80;;;;;;4935800;29;20597;-81
2021/12/17 05:02:42;;;;;;;27.80;23.90;;;6.30;84.80;;;;;;4930805;29;20055;-81
2021/12/17 05:05:10;;;;;;;27.27;23.67;;;6.20;84.80;;;;;;4935662;29;20055;-81
2021/12/17 05:07:45;;;;;;;27.13;23.98;;;6.20;84.80;;;;;;4935727;29;20053;-80
2021/12/17 05:18:32;;;;;;;31.83;24.63;;;6.20;84.90;;;;;;4921682;29;20542;-81
2021/12/17 05:21:03;;;;;;;27.85;23.77;;;6.20;84.90;;;;;;4935622;29;20065;-81
2021/12/17 05:23:34;;;;;;;30.75;23.83;;;6.20;84.80;;;;;;4934887;29;20573;-81
2021/12/17 05:26:16;;;;;;;28.40;23.27;;;6.20;84.80;;;;;;4935406;29;20437;-81
2021/12/17 05:28:49;;;;;;;29.73;23.33;;;6.20;84.90;;;;;;4935400;29;20134;-81
2021/12/17 05:31:21;;;;;;;34.03;24.00;;;6.10;84.90;;;;;;4935053;29;20067;-81
2021/12/17 05:33:49;;;;;;;27.30;23.02;;;6.10;84.90;;;;;;4935591;29;20407;-81
2021/12/17 05:36:16;;;;;;;26.77;22.75;;;6.10;84.90;;;;;;4934435;29;20046;-81
2021/12/17 05:38:43;;;;;;;30.17;23.20;;;6.10;84.90;;;;;;4934578;29;20062;-81
2021/12/17 05:41:10;;;;;;;28.60;22.77;;;6.10;84.80;;;;;;4935640;29;20044;-81
2021/12/17 05:43:38;;;;;;;29.10;22.90;;;6.10;84.90;;;;;;4935238;29;20418;-81
2021/12/17 05:46:11;;;;;;;26.77;23.02;;;6.10;84.80;;;;;;4935143;29;20047;-81
2021/12/17 05:48:40;;;;;;;27.75;22.33;;;6.10;84.90;;;;;;4935338;29;20047;-81
2021/12/17 05:51:10;;;;;;;26.77;22.08;;;6.10;84.90;;;;;;4921512;29;20039;-81
2021/12/17 05:53:37;;;;;;;28.33;23.45;;;6.00;84.90;;;;;;4938082;29;20056;-81
2021/12/17 05:56:05;;;;;;;27.83;23.20;;;6.00;84.90;;;;;;4938790;29;20051;-81
2021/12/17 05:58:32;;;;;;;28.48;23.17;;;6.00;84.90;;;;;;4938537;29;20136;-81
2021/12/17 06:00:59;;;;;;;27.67;23.48;;;6.00;84.90;;;;;;4938304;29;20058;-81
2021/12/17 06:03:26;;;;;;;27.73;22.60;;;6.00;84.90;;;;;;4938824;29;20051;-81
2021/12/17 06:05:53;;;;;;;26.70;23.08;;;6.00;84.90;;;;;;4938711;29;20410;-81
2021/12/17 06:08:20;;;;;;;28.05;22.65;;;6.00;84.90;;;;;;4937722;29;20395;-81
2021/12/17 06:10:47;;;;;;;26.90;22.88;;;6.00;84.90;;;;;;4938628;29;20047;-81
2021/12/17 06:13:14;;;;;;;26.65;23.45;;;6.00;84.90;;;;;;4938465;29;20051;-81
2021/12/17 06:15:41;;;;;;;27.75;22.63;;;6.00;84.90;;;;;;4938167;29;20076;-81
2021/12/17 06:18:08;;;;;;;27.05;22.25;;;6.00;84.90;;;;;;4923548;29;20421;-81
2021/12/17 06:20:35;;;;;;;34.63;23.60;;;6.00;84.90;;;;;;4933886;29;20055;-81
2021/12/17 06:23:02;;;;;;;26.80;22.50;;;6.00;84.90;;;;;;4938387;29;20052;-81
2021/12/17 06:25:29;;;;;;;28.92;22.98;;;5.90;84.90;;;;;;4938262;29;20055;-81
2021/12/17 06:27:56;;;;;;;26.75;22.88;;;5.90;84.90;;;;;;4938072;29;20494;-81
2021/12/17 06:30:23;;;;;;;29.38;24.05;;;6.00;84.90;;;;;;4938008;29;20052;-81
2021/12/17 06:32:51;;;;;;;27.35;23.17;;;6.00;84.90;;;;;;4937948;29;20051;-81
2021/12/17 06:35:18;;;;;;;27.30;22.35;;;5.90;84.90;;;;;;4937275;28;20063;-81
2021/12/17 06:37:45;;;;;;;26.50;21.77;;;5.90;84.90;;;;;;4937906;29;20521;-81
2021/12/17 06:40:13;;;;;;;28.67;22.98;;;5.90;84.90;;;;;;4938029;29;20050;-81
2021/12/17 06:42:40;;;;;;;30.08;23.88;;;5.90;84.90;;;;;;4937952;29;20507;-81
2021/12/17 06:45:17;;;;;;;26.80;22.88;;;5.90;84.90;;;;;;4922671;29;20044;-81
2021/12/17 06:47:53;;;;;;;29.33;23.30;;;5.90;84.90;;;;;;4934293;29;20048;-81
2021/12/17 06:58:52;;;;;;;27.52;22.73;;;5.90;84.90;;;;;;4937192;29;20521;-81
2021/12/17 07:07:12;;;;;;;32.95;25.80;;;5.90;84.80;;;;;;4937404;29;20051;-81
2021/12/17 07:23:04;;;;;;;33.80;26.65;;;5.70;84.90;;;;;;4937087;29;20051;-81
2021/12/17 07:33:39;;;;;;;35.50;27.42;;;5.70;84.90;;;;;;4937058;29;20048;-81
2021/12/17 07:36:10;;;;;;;44.22;28.35;;;5.70;84.90;;;;;;4921844;29;20054;-81
2021/12/17 07:38:46;;;;;;;35.63;28.05;;;5.70;84.90;;;;;;4932527;29;20062;-81
2021/12/17 07:41:14;;;;;;;43.15;30.17;;;5.70;85.00;;;;;;4937466;29;20514;-81
2021/12/17 07:43:52;;;;;;;34.22;27.38;;;5.70;85.00;;;;;;4936471;29;20051;-81
2021/12/17 07:46:21;;;;;;;36.58;28.13;;;5.70;85.00;;;;;;4936788;29;20043;-81
2021/12/17 07:48:48;;;;;;;35.95;29.02;;;5.70;85.00;;;;;;4936674;29;20518;-81
2021/12/17 07:51:17;;;;;;;39.92;30.08;;;5.70;85.00;;;;;;4936813;29;20043;-81
2021/12/17 07:53:44;;;;;;;39.90;28.27;;;5.70;85.00;;;;;;4935682;29;20063;-81
2021/12/17 07:56:14;;;;;;;35.00;27.90;;;5.70;85.00;;;;;;4937367;29;20052;-81
2021/12/17 07:58:41;;;;;;;46.88;30.30;;;5.70;85.00;;;;;;4936495;29;20048;-81
2021/12/17 08:01:10;;;;;;;42.17;30.42;;;5.60;85.00;;;;;;4936551;29;20058;-80
2021/12/17 08:03:42;;;;;;;40.63;30.55;;;5.70;85.10;;;;;;4936647;29;20106;-81
2021/12/17 08:06:10;;;;;;;40.03;29.65;;;5.60;85.10;;;;;;4921692;29;20051;-81
2021/12/17 08:08:37;;;;;;;41.33;31.48;;;5.70;85.10;;;;;;4935599;29;20052;-81
2021/12/17 08:11:06;;;;;;;43.70;30.83;;;5.70;85.10;;;;;;4937383;29;20051;-81
2021/12/17 08:13:36;;;;;;;44.80;30.95;;;5.70;85.10;;;;;;4933221;29;20048;-81
2021/12/17 08:32:08;;;;;;;42.47;30.77;;;5.60;85.20;;;;;;4940473;29;20049;-81
2021/12/17 08:34:35;;;;;;;42.28;32.00;;;5.60;85.20;;;;;;4939313;28;20062;-81
2021/12/17 08:37:03;;;;;;;44.85;31.58;;;5.60;85.20;;;;;;4935610;29;20537;-80
2021/12/17 08:39:30;;;;;;;40.80;29.73;;;5.60;85.20;;;;;;4935246;29;20055;-81
2021/12/17 08:41:59;;;;;;;44.45;32.03;;;5.60;85.20;;;;;;4935450;29;20425;-81
2021/12/17 08:44:27;;;;;;;46.50;31.88;;;5.70;85.30;;;;;;4934714;29;20051;-81
2021/12/17 08:46:54;;;;;;;43.58;31.70;;;5.70;85.30;;;;;;4935021;29;20052;-83
2021/12/17 08:49:22;;;;;;;40.35;30.10;;;5.70;85.30;;;;;;4935298;29;20043;-81
2021/12/17 08:51:51;;;;;;;48.58;33.05;;;5.70;85.30;;;;;;4935456;29;20449;-82
2021/12/17 08:54:18;;;;;;;46.60;31.73;;;5.70;85.30;;;;;;4934763;29;20533;-82
2021/12/17 08:56:47;;;;;;;49.03;34.40;;;5.70;85.30;;;;;;4934512;29;20403;-81
2021/12/17 08:59:17;;;;;;;47.50;33.72;;;5.70;85.30;;;;;;4936233;29;20136;-82
2021/12/17 09:01:45;;;;;;;52.17;34.75;;;5.70;85.30;;;;;;4934878;29;20054;-81
2021/12/17 09:04:14;;;;;;;52.85;35.38;;;5.70;85.30;;;;;;4935025;29;20047;-82
2021/12/17 09:06:41;;;;;;;53.78;34.38;;;5.60;85.30;;;;;;4935422;29;20047;-81
2021/12/17 09:09:08;;;;;;;50.33;34.47;;;5.70;85.30;;;;;;4932028;29;20048;-81
2021/12/17 09:11:38;;;;;;;62.33;39.40;;;5.70;85.30;;;;;;4930919;29;20577;-81
2021/12/17 09:14:05;;;;;;;67.03;41.05;;;5.70;85.30;;;;;;4936385;29;20052;-82
2021/12/17 09:16:34;;;;;;;64.03;40.00;;;5.70;85.30;;;;;;4934957;29;20054;-81
2021/12/17 09:19:03;;;;;;;63.53;39.97;;;5.70;85.40;;;;;;4935182;29;20422;-81
2021/12/17 09:21:31;;;;;;;61.38;37.72;;;5.70;85.40;;;;;;4935259;29;20605;-81
2021/12/17 09:23:58;;;;;;;63.33;40.70;;;5.70;85.40;;;;;;4934620;29;20051;-81
2021/12/17 09:26:26;;;;;;;66.03;38.42;;;5.70;85.40;;;;;;4936005;29;20052;-81
2021/12/17 09:28:53;;;;;;;56.60;38.85;;;5.70;85.40;;;;;;4938911;29;20051;-81
2021/12/17 09:31:21;;;;;;;59.42;39.00;;;5.70;85.40;;;;;;4938613;29;20108;-81
2021/12/17 09:33:49;;;;;;;66.43;40.33;;;5.70;85.40;;;;;;4938915;29;20048;-81
2021/12/17 09:36:18;;;;;;;65.63;38.78;;;5.70;85.50;;;;;;4938740;29;20043;-81
2021/12/17 09:38:49;;;;;;;58.08;38.42;;;5.70;85.50;;;;;;4937380;29;20047;-81
2021/12/17 09:41:17;;;;;;;57.08;37.83;;;5.70;85.50;;;;;;4939705;29;20499;-81
2021/12/17 09:43:45;;;;;;;58.72;37.75;;;5.70;85.50;;;;;;4938766;29;20055;-81
2021/12/17 09:46:12;;;;;;;56.75;37.22;;;5.70;85.50;;;;;;4938260;29;20047;-81
2021/12/17 09:48:39;;;;;;;56.35;36.53;;;5.80;85.50;;;;;;4938782;29;20044;-80
2021/12/17 09:51:08;;;;;;;53.35;35.90;;;5.80;85.60;;;;;;4938548;29;20120;-80
2021/12/17 09:53:35;;;;;;;58.45;37.35;;;5.70;85.60;;;;;;4937059;29;20058;-80
2021/12/17 09:56:04;;;;;;;60.65;37.10;;;5.80;85.60;;;;;;4938577;29;20048;-81
2021/12/17 09:58:32;;;;;;;56.75;34.72;;;5.80;85.60;;;;;;4938257;29;20446;-81
2021/12/17 10:01:00;;;;;;;54.30;36.38;;;5.80;85.60;;;;;;4937951;29;20052;-81
2021/12/17 10:03:28;;;;;;;60.47;35.63;;;5.80;85.60;;;;;;4938484;29;20047;-81
2021/12/17 10:05:56;;;;;;;59.10;36.10;;;5.80;85.60;;;;;;4938065;29;20048;-83
2021/12/17 10:08:24;;;;;;;59.97;36.10;;;5.80;85.60;;;;;;4940827;29;20061;-82
2021/12/17 10:11:03;;;;;;;56.40;35.83;;;5.90;85.70;;;;;;4939744;28;20064;-82
2021/12/17 10:13:33;;;;;;;58.75;36.05;;;5.90;85.70;;;;;;4932772;29;20507;-82
2021/12/17 10:16:06;;;;;;;55.47;35.33;;;5.90;85.70;;;;;;4937796;29;20056;-82
2021/12/17 10:18:46;;;;;;;57.05;35.13;;;5.90;85.70;;;;;;4938310;29;20050;-81
2021/12/17 10:21:23;;;;;;;56.80;34.30;;;5.90;85.70;;;;;;4923527;29;20175;-81
2021/12/17 10:23:52;;;;;;;54.42;34.47;;;5.90;85.70;;;;;;4937519;29;20044;-82
2021/12/17 10:26:21;;;;;;;53.33;34.50;;;5.90;85.70;;;;;;4935142;29;20048;-81
2021/12/17 10:28:59;;;;;;;54.42;34.72;;;5.90;85.70;;;;;;4937901;29;20044;-80
2021/12/17 10:31:28;;;;;;;64.80;34.97;;;5.90;85.70;;;;;;4936365;29;20047;-81
2021/12/17 10:34:03;;;;;;;63.90;35.40;;;5.90;85.70;;;;;;4937734;29;20435;-80
2021/12/17 10:36:36;;;;;;;51.65;33.08;;;5.90;85.70;;;;;;4937180;29;20062;-80
2021/12/17 10:39:22;;;;;;;61.03;34.10;;;5.90;85.70;;;;;;4922664;29;20055;-81
2021/12/17 10:41:51;;;;;;;57.33;34.72;;;5.90;85.70;;;;;;4936358;29;20048;-81
2021/12/17 10:44:20;;;;;;;68.03;35.72;;;5.90;85.70;;;;;;4936855;28;20052;-81
2021/12/17 10:47:32;;;;;;;64.15;34.88;;;5.90;85.70;;;;;;4937268;29;20437;-81
2021/12/17 10:49:59;;;;;;;66.47;35.40;;;5.90;85.80;;;;;;4936967;29;20048;-81
2021/12/17 10:52:41;;;;;;;64.97;35.00;;;5.90;85.70;;;;;;4937158;29;20062;-81
2021/12/17 10:55:15;;;;;;;64.50;32.80;;;5.90;85.80;;;;;;4937328;29;20560;-81
2021/12/17 10:57:43;;;;;;;70.85;35.03;;;5.90;85.80;;;;;;4937581;29;20048;-80
2021/12/17 11:00:11;;;;;;;60.92;33.05;;;5.90;85.80;;;;;;4921988;29;20580;-80
2021/12/17 11:02:50;;;;;;;61.55;34.03;;;5.90;85.80;;;;;;4936414;29;20053;-80
2021/12/17 11:05:18;;;;;;;59.85;33.20;;;5.90;85.80;;;;;;4937988;29;20055;-81
2021/12/17 11:07:47;;;;;;;63.35;33.10;;;5.90;85.80;;;;;;4936864;29;20498;-80
2021/12/17 11:10:16;;;;;;;57.15;33.13;;;5.90;85.80;;;;;;4943028;29;20051;-81
2021/12/17 11:12:45;;;;;;;58.97;33.30;;;6.00;85.90;;;;;;4937133;29;20047;-81
2021/12/17 11:15:19;;;;;;;57.55;32.28;;;5.90;85.90;;;;;;4936938;29;20093;-80
2021/12/17 11:17:55;;;;;;;54.08;31.45;;;5.90;85.90;;;;;;4936222;29;20126;-80
2021/12/17 11:20:28;;;;;;;61.08;32.92;;;6.00;85.90;;;;;;4933963;29;20130;-80
2021/12/17 11:23:03;;;;;;;62.00;32.78;;;6.00;85.90;;;;;;4936507;29;20070;-81
2021/12/17 11:25:31;;;;;;;66.65;33.05;;;6.00;86.00;;;;;;4936673;29;20051;-80
2021/12/17 11:27:59;;;;;;;58.20;32.15;;;6.00;86.00;;;;;;4936519;29;20051;-80
2021/12/17 11:30:29;;;;;;;62.20;32.60;;;6.00;86.00;;;;;;4935415;29;20053;-80
2021/12/17 11:33:01;;;;;;;53.00;30.98;;;6.00;86.00;;;;;;4936794;29;20105;-80
2021/12/17 11:35:30;;;;;;;56.90;31.13;;;6.00;86.00;;;;;;4935587;29;20094;-81
2021/12/17 11:38:01;;;;;;;60.08;33.38;;;6.00;86.00;;;;;;4936487;29;20055;-80
2021/12/17 11:40:43;;;;;;;60.50;34.03;;;6.00;86.00;;;;;;4936526;29;20051;-81
2021/12/17 11:43:50;;;;;;;67.78;35.55;;;6.10;86.10;;;;;;4936622;29;20048;-81
2021/12/17 11:46:28;;;;;;;63.03;34.70;;;6.10;86.10;;;;;;4936350;29;20399;-81
2021/12/17 11:48:59;;;;;;;57.67;33.97;;;6.10;86.10;;;;;;4935207;29;20130;-81
2021/12/17 11:51:29;;;;;;;62.55;34.58;;;6.10;86.10;;;;;;4936291;29;20048;-81
2021/12/17 11:54:09;;;;;;;73.18;36.35;;;6.10;86.10;;;;;;4935939;29;20055;-81
2021/12/17 11:56:48;;;;;;;69.22;36.47;;;6.20;86.20;;;;;;4931730;29;20058;-81
2021/12/17 11:59:24;;;;;;;64.78;35.25;;;6.20;86.20;;;;;;4936673;29;20055;-81
2021/12/17 12:02:15;;;;;;;67.93;36.40;;;6.20;86.20;;;;;;4936035;29;20052;-81
2021/12/17 12:04:42;;;;;;;64.43;34.67;;;6.20;86.20;;;;;;4935859;29;20048;-80
2021/12/17 12:07:19;;;;;;;67.88;36.08;;;6.20;86.20;;;;;;4936106;29;20044;-81
2021/12/17 12:09:57;;;;;;;65.47;36.63;;;6.20;86.20;;;;;;4942037;29;20131;-81
2021/12/17 12:12:43;;;;;;;70.38;37.08;;;6.20;86.20;;;;;;4936488;29;20043;-80
2021/12/17 12:15:23;;;;;;;69.78;34.97;;;6.30;86.30;;;;;;4921614;29;20039;-80
2021/12/17 12:18:03;;;;;;;65.18;33.45;;;6.30;86.20;;;;;;4935607;29;20502;-80
2021/12/17 12:20:46;;;;;;;69.68;35.42;;;6.30;86.30;;;;;;4934857;29;20135;-80
2021/12/17 12:23:21;;;;;;;67.05;34.95;;;6.30;86.30;;;;;;4934983;29;20078;-80
2021/12/17 12:26:11;;;;;;;65.85;34.38;;;6.30;86.30;;;;;;4936111;29;20051;-80
2021/12/17 12:29:03;;;;;;;77.18;35.90;;;6.30;86.30;;;;;;4936180;29;20048;-80
2021/12/17 12:31:37;;;;;;;69.70;33.77;;;6.30;86.30;;;;;;4930468;29;20051;-80
2021/12/17 12:34:09;;;;;;;65.30;34.08;;;6.40;86.30;;;;;;4935939;29;20055;-80
2021/12/17 12:37:05;;;;;;;68.95;33.58;;;6.40;86.30;;;;;;4936164;28;20056;-80
2021/12/17 12:39:38;;;;;;;75.97;33.53;;;6.40;86.30;;;;;;4936005;29;20058;-80
2021/12/17 12:42:12;;;;;;;70.35;32.47;;;6.40;86.40;;;;;;4936025;29;20126;-80
2021/12/17 12:44:42;;;;;;;68.40;32.08;;;6.40;86.40;;;;;;4931379;29;20058;-81
2021/12/17 12:47:12;;;;;;;69.15;33.35;;;6.40;86.40;;;;;;4935691;29;20047;-80
2021/12/17 12:50:06;;;;;;;69.60;31.67;;;6.40;86.40;;;;;;4935855;29;20051;-81
2021/12/17 12:52:47;;;;;;;60.17;30.58;;;6.40;86.40;;;;;;4930366;29;20054;-80
2021/12/17 12:55:35;;;;;;;68.55;31.33;;;6.50;86.40;;;;;;4935754;29;20063;-81
2021/12/17 12:58:30;;;;;;;64.88;30.38;;;6.50;86.40;;;;;;4935775;29;20074;-80
2021/12/17 13:01:01;;;;;;;68.85;31.80;;;6.50;86.40;;;;;;4939778;29;20051;-80
2021/12/17 13:03:31;;;;;;;70.47;31.83;;;6.60;86.50;;;;;;4942149;29;20040;-80
2021/12/17 13:06:00;;;;;;;72.90;34.08;;;6.50;86.40;;;;;;4942269;29;20052;-80
2021/12/17 13:08:31;;;;;;;67.88;32.00;;;6.60;86.40;;;;;;4941527;29;20051;-80
2021/12/17 13:11:05;;;;;;;70.85;32.50;;;6.50;86.40;;;;;;4941929;29;20470;-80
2021/12/17 13:13:40;;;;;;;;;;;6.60;86.50;;;;;;4942401;29;20052;-80
2021/12/17 13:16:34;;;;;;;;;;;6.60;86.50;;;;;;4942123;29;19922;-80
2021/12/17 13:22:02;;;;;;;74.63;32.40;;;6.60;86.50;;;;;;4941917;29;20047;-80
2021/12/17 13:24:32;;;;;;;78.80;33.55;;;6.60;86.50;;;;;;4942091;29;20124;-80
2021/12/17 13:27:03;;;;;;;78.07;33.50;;;6.60;86.50;;;;;;4941977;29;20055;-80
2021/12/17 13:29:34;;;;;;;75.90;33.08;;;6.60;86.50;;;;;;4940858;29;20114;-80
2021/12/17 13:32:17;;;;;;;80.60;33.28;;;6.70;86.60;;;;;;4941906;29;20055;-80
2021/12/17 13:34:49;;;;;;;79.30;33.53;;;6.70;86.60;;;;;;4941994;29;20075;-80
2021/12/17 13:37:20;;;;;;;79.38;32.90;;;6.70;86.60;;;;;;4941828;29;20062;-80
2021/12/17 13:39:51;;;;;;;78.07;33.75;;;6.70;86.60;;;;;;4941741;29;20054;-80
2021/12/17 13:42:21;;;;;;;78.90;32.40;;;6.70;86.60;;;;;;4941897;29;20062;-80
2021/12/17 13:44:53;;;;;;;71.65;31.80;;;6.70;86.60;;;;;;4940807;29;20050;-80
2021/12/17 13:47:24;;;;;;;70.20;32.28;;;6.80;86.60;;;;;;4939116;29;20055;-80
2021/12/17 13:49:57;;;;;;;75.75;32.60;;;6.80;86.60;;;;;;4941602;29;20047;-81
2021/12/17 13:52:29;;;;;;;78.03;31.63;;;6.80;86.60;;;;;;4941628;29;20508;-81
2021/12/17 13:54:59;;;;;;;87.40;31.95;;;6.80;86.60;;;;;;4941513;29;20055;-81
2021/12/17 13:57:29;;;;;;;74.32;33.10;;;6.80;86.60;;;;;;4941719;29;20517;-81
2021/12/17 14:00:10;;;;;;;83.15;33.63;;;6.90;86.70;;;;;;4941468;29;20048;-81
2021/12/17 14:02:40;;;;;;;71.65;32.13;;;6.90;86.70;;;;;;4936958;29;20502;-80
2021/12/17 14:05:16;;;;;;;72.00;31.70;;;6.90;86.70;;;;;;4941148;29;20054;-81
2021/12/17 14:07:49;;;;;;;75.72;31.55;;;6.90;86.70;;;;;;4941652;29;20052;-80
2021/12/17 14:10:32;;;;;;;76.32;32.00;;;6.90;86.70;;;;;;4941404;29;20048;-80
2021/12/17 14:13:00;;;;;;;80.05;32.42;;;6.90;86.70;;;;;;4937816;29;20138;-80
2021/12/17 14:15:48;;;;;;;77.35;31.25;;;6.90;86.70;;;;;;4938423;29;20043;-81
2021/12/17 14:18:26;;;;;;;85.93;31.52;;;6.90;86.70;;;;;;4938499;29;20058;-80
2021/12/17 14:20:56;;;;;;;69.60;31.17;;;6.90;86.70;;;;;;4938506;29;20504;-80
2021/12/17 14:23:25;;;;;;;73.20;30.95;;;6.90;86.70;;;;;;4936227;29;20462;-80
2021/12/17 14:25:53;;;;;;;84.70;32.13;;;6.90;86.70;;;;;;4938180;29;20051;-80
2021/12/17 14:28:24;;;;;;;75.95;30.88;;;6.90;86.70;;;;;;4937939;29;20087;-80
2021/12/17 14:31:09;;;;;;;79.93;30.20;;;7.00;86.70;;;;;;4938215;29;20522;-80
2021/12/17 14:33:41;;;;;;;76.35;31.25;;;7.00;86.70;;;;;;4938368;29;20052;-80
2021/12/17 14:36:10;;;;;;;74.97;29.90;;;7.00;86.70;;;;;;4922874;29;20482;-80
2021/12/17 14:38:49;;;;;;;77.40;29.58;;;7.00;86.70;;;;;;4933465;29;20418;-80
2021/12/17 14:41:37;;;;;;;76.18;30.65;;;7.00;86.70;;;;;;4938855;29;20054;-80
2021/12/17 14:44:22;;;;;;;77.13;31.02;;;7.10;86.70;;;;;;4937582;29;20058;-81
2021/12/17 14:47:06;;;;;;;92.97;33.35;;;7.10;86.70;;;;;;4937913;29;20043;-81
2021/12/17 15:05:13;;;;;;;90.73;31.93;;;7.20;86.80;;;;;;4937978;29;20048;-80
2021/12/17 15:07:41;;;;;;;76.93;29.45;;;7.20;86.90;;;;;;4937722;29;20119;-80
2021/12/17 15:10:11;;;;;;;83.32;30.52;;;7.20;86.90;;;;;;4937457;29;20040;-80
2021/12/17 15:12:38;;;;;;;77.28;29.40;;;7.20;86.90;;;;;;4937241;29;20047;-80
2021/12/17 15:15:21;;;;;;;76.50;29.85;;;7.30;86.90;;;;;;4937541;29;20077;-80
2021/12/17 15:17:53;;;;;;;68.78;29.42;;;7.30;86.90;;;;;;4935303;29;20059;-80
2021/12/17 15:20:23;;;;;;;81.68;29.67;;;7.30;86.90;;;;;;4934759;29;20059;-80
2021/12/17 15:22:51;;;;;;;76.68;29.42;;;7.30;86.90;;;;;;4936725;29;20140;-81
2021/12/17 15:25:19;;;;;;;81.60;30.52;;;7.30;86.90;;;;;;4936600;29;20122;-80
2021/12/17 15:27:47;;;;;;;73.93;29.40;;;7.40;86.90;;;;;;4937269;29;20051;-80
2021/12/17 15:30:20;;;;;;;91.00;31.50;;;7.40;86.90;;;;;;4937149;29;20051;-80
2021/12/17 15:32:47;;;;;;;79.82;28.50;;;7.40;86.90;;;;;;4936414;29;20055;-80
2021/12/17 15:35:23;;;;;;;72.82;29.15;;;7.40;86.90;;;;;;4936278;28;20103;-80
2021/12/17 15:37:52;;;;;;;78.78;28.08;;;7.40;86.90;;;;;;4937003;29;20054;-81
2021/12/17 15:40:19;;;;;;;77.90;29.65;;;7.40;86.90;;;;;;4936513;29;20514;-81
2021/12/17 15:42:47;;;;;;;96.57;32.53;;;7.40;86.90;;;;;;4936901;29;20058;-81
2021/12/17 15:45:15;;;;;;;92.45;33.55;;;7.40;87.00;;;;;;4936882;29;20094;-81
2021/12/17 15:47:42;;;;;;;113.93;35.75;;;7.40;87.00;;;;;;4936050;29;20506;-80
2021/12/17 15:50:11;;;;;;;88.57;31.77;;;7.50;87.00;;;;;;4936647;29;20054;-80
2021/12/17 15:52:56;;;;;;;116.55;34.28;;;7.50;87.00;;;;;;4936567;29;20058;-81
2021/12/17 15:55:25;;;;;;;82.47;30.42;;;7.50;87.00;;;;;;4936064;29;20056;-80
2021/12/17 15:57:57;;;;;;;98.78;32.17;;;7.50;87.00;;;;;;4936673;29;20051;-80
2021/12/17 16:00:28;;;;;;;115.72;35.97;;;7.50;87.00;;;;;;4936794;29;20065;-80